HALF-HOURLY OBSERVATIONS INDEX

039

South Coast - Curtis

BUNDABERG AERO

Site: 039128
Alt: 30.8m
5km SSW of BUNDABERG


  Time     Wind        Temp  DP   Baro     Rain since   Rain past  Vis(m), Cloud(base in m), Weather
  local        km/h                         9am  last   hr   10m    
Mon 10:00  SSE 15/ 22  29.7 23.6  1013.7    0.0   0.0   0.0   0.0   10000|BR 720 BR 960 
Mon 10:30   SE 20/ 28  29.7 22.7  1013.5    0.0   0.0   0.0   0.0   10000|SC 870 
Mon 11:00   SE 17/ 24  30.9 23.5  1013.1    0.0   0.0   0.0   0.0   10000|BR 990 BR1200 
Mon 11:30  ESE 13/ 19  30.0 22.9  1012.7    0.0   0.0   0.0   0.0   10000|BR1050 BR1350 
Mon 12:00   SE 15/ 24  30.9 23.5  1012.4    0.0   0.0   0.0   0.0   10000|SC1050 SC1350 BR1530 
Mon 12:30  ESE 17/ 24  30.3 23.2  1012.0    0.0   0.0   0.0   0.0   10000|BR1050 
Mon 13:00    E 20/ 28  30.1 23.5  1011.9    0.0   0.0   0.0   0.0   10000|BR1050 
Mon 13:30    E 22/ 30  31.4 23.5  1011.6    0.0   0.0   0.0   0.0   10000|SC1050 BR1230 BR1530 
Mon 14:00    E 26/ 35  31.6 22.9  1011.4    0.0   0.0   0.0   0.0   10000|SC1050 SC1200 SC1440 
Mon 14:30    E 24/ 33  31.6 23.4  1011.2    0.0   0.0   0.0   0.0   10000|SC1320 SC1530 
Mon 15:00    E 26/ 35  30.8 22.9  1010.8    0.0   0.0   0.0   0.0   10000|SC1170 
Mon 15:30    E 24/ 33  30.2 22.9  1010.8    0.0   0.0   0.0   0.0   10000|BR1170 BR1350 

GAYNDAH AIRPORT

Site: 039066
Alt: 110.9m
108km W of MARYBOROUGH


  Time     Wind        Temp  DP   Baro     Rain since   Rain past  Vis(m), Cloud(base in m), Weather
  local        km/h                         9am  last   hr   10m    
Mon 10:00  ENE 11/ 17  29.2 20.9  1014.4    0.0   0.0   0.0   0.0   ----- 
Mon 10:30    E  9/ 19  29.8 21.2  1014.1    0.0   0.0   0.0   0.0   ----- 
Mon 11:00    E  9/ 17  29.3 21.0  1013.9    0.0   0.0   0.0   0.0   ----- 
Mon 11:30  ENE  4/ 13  30.5 21.3  1013.4    0.0   0.0   0.0   0.0   ----- 
Mon 12:00    S  6/ 11  30.2 20.4  1013.1    0.0   0.0   0.0   0.0   ----- 
Mon 12:30  SSE  6/ 11  31.6 21.5  1012.6    0.0   0.0   0.0   0.0   ----- 
Mon 13:00  SSE  7/ 11  32.3 20.5  1012.2    0.0   0.0   0.0   0.0   ----- 
Mon 13:30   SE  7/ 15  32.8 21.0  1011.8    0.0   0.0   0.0   0.0   ----- 
Mon 14:00  ESE  9/ 20  32.8 19.7  1011.5    0.0   0.0   0.0   0.0   ----- 
Mon 14:30    E 11/ 17  32.9 20.1  1011.1    0.0   0.0   0.0   0.0   ----- 
Mon 15:00  ESE 11/ 19  33.4 19.8  1010.7    0.0   0.0   0.0   0.0   ----- 
Mon 15:30    E 13/ 20  33.4 20.2  1010.4    0.0   0.0   0.0   0.0   ----- 

GLADSTONE AIRPORT

Site: 039326
Alt: 16.6m
5km SW of GLADSTONE


  Time     Wind        Temp  DP   Baro     Rain since   Rain past  Vis(m), Cloud(base in m), Weather
  local        km/h                         9am  last   hr   10m    
Mon 10:00  ESE 19/ 24  30.8 21.9  1013.3    0.0   0.0   0.0   0.0   10000|BR 960 
Mon 10:30  ESE 19/ 24  31.1 21.9  1013.0    0.0   0.0   0.0   0.0   10000|SC 960 
Mon 11:00    E 20/ 30  31.7 22.7  1012.8    0.0   0.0   0.0   0.0   10000|SC1140 
Mon 11:30  ESE 17/ 30  31.4 23.0  1012.4    0.0   0.0   0.0   0.0   10000|BR1080 BR1320 
Mon 12:00    E 19/ 30  32.7 23.1  1012.1    0.0   0.0   0.0   0.0   10000|SC1080 
Mon 12:30  ESE 17/ 28  32.5 22.6  1011.8    0.0   0.0   0.0   0.0   10000|SC1080 
Mon 13:00    E 22/ 30  32.4 22.5  1011.4    0.0   0.0   0.0   0.0   10000 
Mon 13:30    E 24/ 37  32.3 22.1  1011.3    0.0   0.0   0.0   0.0   10000 
Mon 14:00    E 26/ 37  32.3 23.3  1011.0    0.0   0.0   0.0   0.0   10000 
Mon 14:30    E 30/ 37  32.1 21.6  1010.7    0.0   0.0   0.0   0.0   10000 
Mon 15:00    E 30/ 41  31.6 22.3  1010.4    0.0   0.0   0.0   0.0   10000 
Mon 15:30    E 28/ 39  31.3 21.5  1010.2    0.0   0.0   0.0   0.0   10000 

GLADSTONE RADAR

Site: 039123
Alt: 74.5m
3km SSE of GLADSTONE


  Time     Wind        Temp  DP   Baro     Rain since   Rain past  Vis(m), Cloud(base in m), Weather
  local        km/h                         9am  last   hr   10m    
Mon 10:00  ESE 19/ 32  31.8 22.8  1013.6    0.0   0.0   0.0   0.0   ----- 
Mon 10:30  ESE 20/ 30  32.1 22.8  1013.4    0.0   0.0   0.0   0.0   ----- 
Mon 11:00    E 20/ 28  33.0 23.3  1013.1    0.0   0.0   0.0   0.0   ----- 
Mon 11:30    E 20/ 30  33.7 23.4  1012.8    0.0   0.0   0.0   0.0   ----- 
Mon 12:00    E 20/ 28  33.9 23.0  1012.5    0.0   0.0   0.0   0.0   ----- 
Mon 12:30  ENE 24/ 33  33.0 23.3  1012.1    0.0   0.0   0.0   0.0   ----- 
Mon 13:00    E 28/ 35  32.7 22.5  1011.7    0.0   0.0   0.0   0.0   ----- 
Mon 13:30  ENE 26/ 39  33.2 23.5  1011.5    0.0   0.0   0.0   0.0   ----- 
Mon 14:00    E 28/ 41  32.2 22.3  1011.2    0.0   0.0   0.0   0.0   ----- 
Mon 14:30    E 30/ 43  31.7 21.5  1010.9    0.0   0.0   0.0   0.0   ----- 
Mon 15:00    E 32/ 43  31.1 22.4  1010.7    0.0   0.0   0.0   0.0   ----- 
Mon 15:30  ENE 28/ 41  31.1 23.0  1010.5    0.0   0.0   0.0   0.0   ----- 

HERON ISLAND RES STN

Site: 039122
Alt: 3.3m
80km ENE of GLADSTONE


  Time     Wind        Temp  DP   Baro     Rain since   Rain past  Vis(m), Cloud(base in m), Weather
  local        km/h                         9am  last   hr   10m    
Mon 10:00   SE 26/ 35 --------  ------   ----  ----  ----  ----   ----- 
Mon 10:30   SE 30/ 35 --------  ------   ----  ----  ----  ----   ----- 
Mon 11:00   SE 28/ 35 --------  ------   ----  ----  ----  ----   ----- 
Mon 11:30   SE 24/ 33 --------  ------   ----  ----  ----  ----   ----- 
Mon 12:00   SE 30/ 35 --------  ------   ----  ----  ----  ----   ----- 
Mon 12:30   SE 30/ 35 --------  ------   ----  ----  ----  ----   ----- 
Mon 13:00   SE 30/ 37 --------  ------   ----  ----  ----  ----   ----- 
Mon 13:30   SE 24/ 33 --------  ------   ----  ----  ----  ----   ----- 
Mon 14:00   SE 28/ 35 --------  ------   ----  ----  ----  ----   ----- 
Mon 14:30   SE 30/ 39 --------  ------   ----  ----  ----  ----   ----- 
Mon 15:00   SE 32/ 41 --------  ------   ----  ----  ----  ----   ----- 
Mon 15:30   SE 28/ 41 --------  ------   ----   0.0   0.0  ----   ----- 

LADY ELLIOT ISLAND

Site: 039059
Alt: 3.6m
92km NNE of BUNDABERG


  Time     Wind        Temp  DP   Baro     Rain since   Rain past  Vis(m), Cloud(base in m), Weather
  local        km/h                         9am  last   hr   10m    
Mon 10:00  SSE 22/ 32  30.5 25.1  1013.0    0.0   0.0   0.0   0.0   ----- 
Mon 10:30  SSE 20/ 30  30.2 24.6  1013.0    0.0   0.0   0.0   0.0   ----- 
Mon 11:00   SE 26/ 33  31.2 24.8  1012.9    0.0   0.0   0.0   0.0   ----- 
Mon 11:30   SE 24/ 32  31.6 24.5  1012.8    0.0   0.0   0.0   0.0   ----- 
Mon 12:00   SE 24/ 30  31.6 24.5  1012.5    0.0   0.0   0.0   0.0   ----- 
Mon 12:30   SE 24/ 32  31.2 24.3  1012.2    0.0   0.0   0.0   0.0   ----- 
Mon 13:00   SE 22/ 32  32.1 24.9  1012.0    0.0   0.0   0.0   0.0   ----- 
Mon 13:30  ESE 24/ 32  31.0 24.4  1011.8    0.0   0.0   0.0   0.0   ----- 
Mon 14:00   SE 24/ 32  31.6 24.2  1011.6    0.0   0.0   0.0   0.0   ----- 
Mon 14:30  ESE 24/ 32  30.5 23.9  1011.1    0.0   0.0   0.0   0.0   ----- 
Mon 15:00  ESE 24/ 32  31.1 24.2  1011.0    0.0   0.0   0.0   0.0   ----- 
Mon 15:30  ESE 24/ 32  30.4 24.5  1010.9    0.0   0.0   0.0   0.0   ----- 

ROCKHAMPTON AERO

Site: 039083
Alt: 10.4m
3km WSW of ROCKHAMPTON


  Time     Wind        Temp  DP   Baro     Rain since   Rain past  Vis(m), Cloud(base in m), Weather
  local        km/h                         9am  last   hr   10m    
Mon 10:00   SE 15/ 22  30.9 21.9  1013.1    0.0   0.0   0.0   0.0   10000|SC 840 
Mon 10:30   SE 17/ 26  31.2 21.7  1012.8    0.0   0.0   0.0   0.0   10000|SC 930 
Mon 11:00   SE 17/ 24  32.7 22.2  1012.5    0.0   0.0   0.0   0.0   10000|BR 990 BR1200 
Mon 11:30  ESE 15/ 26  32.5 21.0  1012.2    0.0   0.0   0.0   0.0   10000|SC1110 
Mon 12:00  ESE 15/ 26  33.7 20.8  1011.7    0.0   0.0   0.0   0.0   10000 
Mon 12:30  ESE 17/ 26  33.2 21.0  1011.3    0.0   0.0   0.0   0.0   10000|SC1320 
Mon 13:00   SE 19/ 20  32.5 19.7  1011.0    0.0   0.0   0.0   0.0   10000|SC1380 BR1680 
Mon 13:30    E 17/ 28  34.0 21.4  1010.5    0.0   0.0   0.0   0.0   10000|SC1320 SC1530 
Mon 14:00    E 17/ 26  32.9 21.1  1010.1    0.0   0.0   0.0   0.0   10000|SC1230 
Mon 14:30  ENE 17/ 26  32.8 21.6  1009.8    0.0   0.0   0.0   0.0   10000|SC1230 
Mon 15:00  ENE 17/ 26  32.8 21.3  1009.6    0.0   0.0   0.0   0.0   10000 
Mon 15:30    E 17/ 22  32.8 22.0  1009.6    0.0   0.0   0.0   0.0   10000 

RUNDLE ISLAND

Site: 039322
Alt: 19.8m
34km N of GLADSTONE


  Time     Wind        Temp  DP   Baro     Rain since   Rain past  Vis(m), Cloud(base in m), Weather
  local        km/h                         9am  last   hr   10m    
Mon 10:00   SE 28/ 32  27.3----  1012.9   ----  ----  ----  ----   ----- 
Mon 10:30  SSE 28/ 35  27.7----  1012.8   ----  ----  ----  ----   ----- 
Mon 11:00   SE 28/ 32  28.0----  1012.7   ----  ----  ----  ----   ----- 
Mon 11:30   SE 30/ 33  27.6----  1012.5   ----  ----  ----  ----   ----- 
Mon 12:00   SE 28/ 33  28.0----  1012.3   ----  ----  ----  ----   ----- 
Mon 12:30  ESE 28/ 33  28.2----  1012.0   ----  ----  ----  ----   ----- 
Mon 13:00  ESE 30/ 33  27.7----  1011.4   ----  ----  ----  ----   ----- 
Mon 13:30  ESE 30/ 33  27.6----  1011.2   ----  ----  ----  ----   ----- 
Mon 14:00  ESE 33/ 37  27.7----  1010.7   ----  ----  ----  ----   ----- 
Mon 14:30  ESE 33/ 37  28.0----  1010.3   ----  ----  ----  ----   ----- 
Mon 15:00  ESE 33/ 37  28.0----  1010.0   ----  ----  ----  ----   ----- 
Mon 15:30  ESE 32/ 35  28.2----  1010.0   ----   0.0   0.0  ----   ----- 

THANGOOL AIRPORT

Site: 039089
Alt: 193.1m
13km SSE of BILOELA


  Time     Wind        Temp  DP   Baro     Rain since   Rain past  Vis(m), Cloud(base in m), Weather
  local        km/h                         9am  last   hr   10m    
Mon 10:00    E 15/ 20  29.3 20.5  1014.5    0.0   0.0   0.0   0.0   10000 
Mon 10:30  SSE 13/ 20  30.0 21.1  1014.3    0.0   0.0   0.0   0.0   10000 
Mon 11:00   SE 15/ 22  30.7 21.8  1014.0    0.0   0.0   0.0   0.0   10000 
Mon 11:30  ESE 13/ 22  31.5 20.4  1013.6    0.0   0.0   0.0   0.0   10000 
Mon 12:00    E 17/ 24  31.6 20.2  1013.1    0.0   0.0   0.0   0.0   10000 
Mon 12:30   SE 13/ 20  32.3 20.5  1012.6    0.0   0.0   0.0   0.0   10000 
Mon 13:00    E 17/ 24  33.3 20.8  1012.2    0.0   0.0   0.0   0.0   10000 
Mon 13:30   SE 13/ 20  33.7 21.5  1011.9    0.0   0.0   0.0   0.0   10000 
Mon 14:00   SE 13/ 22  32.6 19.5  1011.4    0.0   0.0   0.0   0.0   10000|SC1590 
Mon 14:30  SSE 13/ 20  33.1 19.9  1010.9    0.0   0.0   0.0   0.0   10000|SC1710 
Mon 15:00  ESE 13/ 24  33.8 19.8  1010.6    0.0   0.0   0.0   0.0   10000 
Mon 15:30   SE 13/ 20  33.2 20.0  1010.4    0.0   0.0   0.0   0.0   10000|SC1830 SC2490